createdAt,value
2019-01-27T00:00:50.230Z,2.10
2019-01-27T00:02:50.345Z,2.07
2019-01-27T00:04:49.786Z,2.03
2019-01-27T00:06:50.165Z,2.02
2019-01-27T00:08:50.253Z,2.01
2019-01-27T00:10:50.307Z,2.01
2019-01-27T00:12:50.333Z,2.01
2019-01-27T00:14:50.393Z,2.03
2019-01-27T00:16:50.602Z,2.01
2019-01-27T00:18:49.743Z,2.01
2019-01-27T00:20:49.860Z,2.01
2019-01-27T00:22:49.870Z,2.02
2019-01-27T00:24:50.009Z,2.01
2019-01-27T00:26:50.286Z,2.01
2019-01-27T00:28:50.330Z,2.04
2019-01-27T00:30:50.354Z,2.03
2019-01-27T00:32:50.359Z,2.01
2019-01-27T00:34:50.683Z,2.02
2019-01-27T00:36:50.084Z,2.02
2019-01-27T00:38:50.148Z,2.06
2019-01-27T00:40:50.234Z,2.08
2019-01-27T00:42:50.256Z,2.16
2019-01-27T00:44:50.243Z,2.17
2019-01-27T00:46:50.512Z,2.20
2019-01-27T00:48:50.561Z,2.22
2019-01-27T00:50:50.638Z,2.24
2019-01-27T00:52:49.679Z,2.25
2019-01-27T00:54:49.730Z,2.24
2019-01-27T00:56:50.061Z,2.23
2019-01-27T00:58:50.196Z,2.20
2019-01-27T01:00:50.288Z,2.18
2019-01-27T01:02:50.368Z,2.17
2019-01-27T01:04:49.891Z,2.23
2019-01-27T01:06:50.175Z,2.23
2019-01-27T01:08:50.230Z,2.23
2019-01-27T01:10:50.271Z,2.22
2019-01-27T01:12:50.608Z,2.20
2019-01-27T01:14:49.783Z,2.20
2019-01-27T01:16:50.167Z,2.20
2019-01-27T01:18:50.136Z,2.21
2019-01-27T01:20:50.235Z,2.22
2019-01-27T01:22:50.338Z,2.21
2019-01-27T01:24:50.415Z,2.19
2019-01-27T01:26:49.841Z,2.20
2019-01-27T01:28:50.133Z,2.20
2019-01-27T01:30:50.157Z,2.19
2019-01-27T01:32:50.178Z,2.16
2019-01-27T01:34:50.623Z,2.15
2019-01-27T01:36:49.850Z,2.13
2019-01-27T01:38:49.955Z,2.12
2019-01-27T01:40:50.041Z,2.11
2019-01-27T01:42:50.152Z,2.12
2019-01-27T01:44:50.261Z,2.15
2019-01-27T01:46:50.634Z,2.17
2019-01-27T01:48:50.656Z,2.16
2019-01-27T01:50:49.777Z,2.16
2019-01-27T01:52:49.924Z,2.16
2019-01-27T01:54:49.985Z,2.16
2019-01-27T01:56:50.161Z,2.13
2019-01-27T01:58:50.209Z,2.07
2019-01-27T02:00:50.308Z,2.01
2019-01-27T02:02:50.422Z,1.95
2019-01-27T02:04:49.826Z,1.93
2019-01-27T02:06:50.190Z,1.94
2019-01-27T02:08:50.209Z,1.94
2019-01-27T02:10:50.292Z,1.98
2019-01-27T02:12:50.508Z,2.02
2019-01-27T02:14:50.627Z,2.10
2019-01-27T02:16:49.772Z,2.15
2019-01-27T02:18:49.941Z,2.20
2019-01-27T02:20:50.022Z,2.22
2019-01-27T02:22:50.062Z,2.26
2019-01-27T02:24:50.072Z,2.38
2019-01-27T02:26:50.319Z,2.42
2019-01-27T02:28:50.389Z,2.46
2019-01-27T02:30:50.424Z,2.44
2019-01-27T02:32:50.436Z,2.40
2019-01-27T02:34:49.715Z,2.35
2019-01-27T02:36:50.037Z,2.35
2019-01-27T02:38:50.150Z,2.38
2019-01-27T02:40:50.223Z,2.39
2019-01-27T02:42:50.206Z,2.41
2019-01-27T02:44:50.190Z,2.45
2019-01-27T02:46:50.377Z,2.49
2019-01-27T02:48:50.418Z,2.51
2019-01-27T02:50:50.385Z,2.50
2019-01-27T02:52:50.382Z,2.57
2019-01-27T02:54:50.350Z,2.59
2019-01-27T02:56:50.534Z,2.58
2019-01-27T02:58:50.504Z,2.56
2019-01-27T03:00:50.540Z,2.56
2019-01-27T03:02:50.650Z,2.56
2019-01-27T03:04:50.167Z,2.55
2019-01-27T03:06:50.418Z,2.51
2019-01-27T03:08:50.511Z,2.52
2019-01-27T03:10:50.545Z,2.52
2019-01-27T03:12:50.641Z,2.51
2019-01-27T03:14:49.723Z,2.46
2019-01-27T03:16:50.023Z,2.45
2019-01-27T03:18:50.116Z,2.44
2019-01-27T03:20:50.199Z,2.45
2019-01-27T03:22:50.275Z,2.45
2019-01-27T03:24:50.317Z,2.44
2019-01-27T03:26:50.582Z,2.41
2019-01-27T03:28:49.806Z,2.42
2019-01-27T03:30:50.040Z,2.41
2019-01-27T03:32:50.180Z,2.40
2019-01-27T03:34:50.479Z,2.41
2019-01-27T03:36:49.713Z,2.38
2019-01-27T03:38:49.837Z,2.34
2019-01-27T03:40:49.961Z,2.33
2019-01-27T03:42:50.068Z,2.33
2019-01-27T03:44:50.192Z,2.32
2019-01-27T03:46:50.359Z,2.34
2019-01-27T03:48:50.466Z,2.32
2019-01-27T03:50:50.483Z,2.31
2019-01-27T03:52:50.608Z,2.32
2019-01-27T03:54:50.665Z,2.34
2019-01-27T03:56:49.994Z,2.36
2019-01-27T03:58:50.037Z,2.34
2019-01-27T04:00:50.106Z,2.33
2019-01-27T04:02:50.274Z,2.33
2019-01-27T04:04:49.704Z,2.31
2019-01-27T04:06:50.058Z,2.31
2019-01-27T04:08:50.118Z,2.32
2019-01-27T04:10:50.189Z,2.32
2019-01-27T04:12:50.221Z,2.32
2019-01-27T04:14:50.296Z,2.31
2019-01-27T04:16:50.542Z,2.28
2019-01-27T04:18:50.564Z,2.28
2019-01-27T04:20:50.532Z,2.31
2019-01-27T04:22:50.545Z,2.32
2019-01-27T04:24:49.723Z,2.29
2019-01-27T04:26:49.938Z,2.28
2019-01-27T04:28:50.058Z,2.27
2019-01-27T04:30:50.128Z,2.28
2019-01-27T04:32:50.238Z,2.27
2019-01-27T04:34:50.622Z,2.28
2019-01-27T04:36:50.003Z,2.28
2019-01-27T04:38:50.126Z,2.29
2019-01-27T04:40:50.177Z,2.31
2019-01-27T04:42:50.371Z,2.31
2019-01-27T04:44:50.508Z,2.31
2019-01-27T04:46:49.892Z,2.34
2019-01-27T04:48:50.046Z,2.35
2019-01-27T04:50:50.086Z,2.34
2019-01-27T04:52:50.247Z,2.33
2019-01-27T04:54:50.335Z,2.33
2019-01-27T04:56:50.653Z,2.30
2019-01-27T04:58:49.773Z,2.27
2019-01-27T05:00:49.992Z,2.26
2019-01-27T05:02:50.050Z,2.27
2019-01-27T05:04:50.440Z,2.27
2019-01-27T05:06:49.720Z,2.27
2019-01-27T05:08:49.840Z,2.29
2019-01-27T05:10:49.988Z,2.32
2019-01-27T05:12:50.086Z,2.32
2019-01-27T05:14:50.128Z,2.26
2019-01-27T05:16:50.326Z,2.22
2019-01-27T05:18:50.454Z,2.21
2019-01-27T05:20:50.521Z,2.22
2019-01-27T05:22:50.681Z,2.19
2019-01-27T05:24:49.682Z,2.18
2019-01-27T05:26:50.478Z,2.17
2019-01-27T05:28:50.551Z,2.17
2019-01-27T05:30:50.648Z,2.21
2019-01-27T05:32:49.732Z,2.28
2019-01-27T05:34:50.157Z,2.30
2019-01-27T05:36:50.392Z,2.30
2019-01-27T05:38:50.341Z,2.32
2019-01-27T05:40:50.403Z,2.32
2019-01-27T05:42:50.415Z,2.35
2019-01-27T05:44:50.462Z,2.36
2019-01-27T05:46:50.667Z,2.37
2019-01-27T05:48:49.794Z,2.35
2019-01-27T05:50:49.840Z,2.36
2019-01-27T05:52:49.913Z,2.34
2019-01-27T05:54:49.976Z,2.31
2019-01-27T05:56:57.063Z,2.33
2019-01-27T05:58:50.040Z,2.36
2019-01-27T06:00:50.162Z,2.37
2019-01-27T06:02:50.190Z,2.37
2019-01-27T06:04:50.565Z,2.36
2019-01-27T06:06:49.885Z,2.39
2019-01-27T06:08:49.921Z,2.38
2019-01-27T06:10:49.962Z,2.38
2019-01-27T06:12:49.971Z,2.39
2019-01-27T06:14:50.014Z,2.41
2019-01-27T06:16:50.254Z,2.42
2019-01-27T06:18:50.421Z,2.43
2019-01-27T06:20:50.579Z,2.45
2019-01-27T06:22:50.697Z,2.46
2019-01-27T06:24:49.834Z,2.46
2019-01-27T06:26:50.185Z,2.48
2019-01-27T06:28:50.397Z,2.50
2019-01-27T06:30:50.413Z,2.54
2019-01-27T06:32:50.405Z,2.55
2019-01-27T06:34:49.805Z,2.56
2019-01-27T06:36:50.150Z,2.56
2019-01-27T06:38:50.226Z,2.56
2019-01-27T06:40:50.279Z,2.56
2019-01-27T06:42:50.258Z,2.56
2019-01-27T06:44:50.309Z,2.56
2019-01-27T06:46:50.577Z,2.57
2019-01-27T06:48:50.551Z,2.59
2019-01-27T06:50:49.698Z,2.60
2019-01-27T06:52:49.831Z,2.60
2019-01-27T06:54:49.866Z,2.61
2019-01-27T06:56:50.206Z,2.62
2019-01-27T06:58:50.194Z,2.62
2019-01-27T07:00:50.346Z,2.60
2019-01-27T07:02:49.853Z,2.59
2019-01-27T07:04:50.374Z,2.55
2019-01-27T07:06:50.568Z,2.53
2019-01-27T07:08:50.643Z,2.45
2019-01-27T07:10:49.743Z,2.40
2019-01-27T07:12:49.817Z,2.39
2019-01-27T07:14:50.077Z,2.38
2019-01-27T07:16:50.233Z,2.38
2019-01-27T07:18:50.264Z,2.38
2019-01-27T07:20:50.332Z,2.39
2019-01-27T07:22:50.046Z,2.40
2019-01-27T07:24:50.096Z,2.40
2019-01-27T07:26:50.381Z,2.40
2019-01-27T07:28:49.718Z,2.41
2019-01-27T07:30:49.688Z,2.42
2019-01-27T07:32:50.639Z,2.40
2019-01-27T07:34:50.172Z,2.39
2019-01-27T07:36:50.457Z,2.38
2019-01-27T07:38:50.525Z,2.39
2019-01-27T07:40:50.549Z,2.42
2019-01-27T07:42:50.590Z,2.43
2019-01-27T07:44:49.725Z,2.42
2019-01-27T07:46:49.947Z,2.40
2019-01-27T07:48:50.059Z,2.41
2019-01-27T07:50:50.117Z,2.41
2019-01-27T07:52:50.165Z,2.43
2019-01-27T07:54:50.210Z,2.46
2019-01-27T07:56:50.554Z,2.46
2019-01-27T07:58:50.580Z,2.45
2019-01-27T08:00:49.692Z,2.43
2019-01-27T08:02:49.828Z,2.43
2019-01-27T08:04:50.163Z,2.42
2019-01-27T08:06:49.790Z,2.44
2019-01-27T08:08:51.491Z,2.45
2019-01-27T08:10:50.598Z,2.46
2019-01-27T08:12:49.837Z,2.46
2019-01-27T08:14:49.871Z,2.48
2019-01-27T08:16:50.200Z,2.48
2019-01-27T08:18:50.324Z,2.49
2019-01-27T08:20:50.532Z,2.50
2019-01-27T08:22:50.691Z,2.51
2019-01-27T08:24:49.893Z,2.51
2019-01-27T08:26:50.249Z,2.53
2019-01-27T08:28:50.298Z,2.54
2019-01-27T08:30:50.436Z,2.58
2019-01-27T08:32:50.594Z,2.62
2019-01-27T08:34:49.981Z,2.63
2019-01-27T08:36:50.262Z,2.66
2019-01-27T08:38:50.315Z,2.69
2019-01-27T08:40:50.488Z,2.71
2019-01-27T08:42:50.636Z,2.79
2019-01-27T08:44:49.725Z,2.83
2019-01-27T08:46:49.959Z,2.90
2019-01-27T08:48:49.941Z,2.96
2019-01-27T08:50:49.984Z,3.02
2019-01-27T08:52:50.018Z,3.02
2019-01-27T08:54:50.135Z,3.08
2019-01-27T08:56:50.434Z,3.12
2019-01-27T08:58:50.475Z,3.16
2019-01-27T09:00:50.661Z,3.19
2019-01-27T09:02:49.770Z,3.28
2019-01-27T09:04:50.382Z,3.34
2019-01-27T09:06:50.687Z,3.40
2019-01-27T09:08:49.743Z,3.44
2019-01-27T09:10:49.926Z,3.46
2019-01-27T09:12:49.729Z,3.50
2019-01-27T09:14:49.821Z,3.54
2019-01-27T09:16:50.218Z,3.59
2019-01-27T09:18:50.336Z,3.68
2019-01-27T09:20:50.337Z,3.68
2019-01-27T09:22:50.405Z,3.79
2019-01-27T09:24:50.461Z,3.80
2019-01-27T09:26:49.698Z,3.85
2019-01-27T09:28:50.697Z,3.95
2019-01-27T09:30:50.157Z,4.03
2019-01-27T09:32:50.207Z,4.03
2019-01-27T09:34:49.752Z,4.02
2019-01-27T09:36:49.851Z,4.03
2019-01-27T09:38:50.403Z,4.02
2019-01-27T09:40:50.325Z,4.01
2019-01-27T09:42:50.397Z,4.07
2019-01-27T09:44:50.569Z,4.08
2019-01-27T09:46:49.852Z,4.09
2019-01-27T09:48:50.103Z,4.08
2019-01-27T09:50:50.329Z,4.08
2019-01-27T09:52:50.561Z,4.07
2019-01-27T09:54:50.656Z,4.07
2019-01-27T09:56:50.006Z,4.04
2019-01-27T09:58:50.007Z,4.05
2019-01-27T10:00:50.652Z,4.09
2019-01-27T10:02:49.708Z,4.10
2019-01-27T10:04:50.310Z,4.12
2019-01-27T10:06:50.418Z,4.15
2019-01-27T10:08:50.427Z,4.19
2019-01-27T10:10:50.424Z,4.23
2019-01-27T10:12:50.453Z,4.27
2019-01-27T10:14:50.560Z,4.32
2019-01-27T10:16:49.701Z,4.37
2019-01-27T10:18:49.709Z,4.44
2019-01-27T10:20:49.824Z,4.43
2019-01-27T10:22:49.925Z,4.47
2019-01-27T10:24:50.102Z,4.50
2019-01-27T10:26:50.290Z,4.56
2019-01-27T10:28:50.357Z,4.66
2019-01-27T10:30:50.331Z,4.72
2019-01-27T10:32:50.684Z,4.72
2019-01-27T10:34:50.296Z,4.75
2019-01-27T10:36:50.543Z,4.75
2019-01-27T10:38:50.526Z,4.90
2019-01-27T10:40:50.566Z,4.91
2019-01-27T10:42:49.691Z,4.85
2019-01-27T10:44:49.684Z,4.89
2019-01-27T10:46:49.954Z,4.93
2019-01-27T10:48:49.921Z,4.94
2019-01-27T10:50:50.145Z,5.03
2019-01-27T10:52:50.252Z,5.11
2019-01-27T10:54:50.304Z,5.15
2019-01-27T10:56:50.608Z,5.34
2019-01-27T10:58:50.587Z,5.57
2019-01-27T11:00:50.667Z,5.93
2019-01-27T11:02:49.942Z,6.17
2019-01-27T11:04:50.438Z,6.17
2019-01-27T11:06:49.947Z,6.20
2019-01-27T11:08:50.149Z,6.36
2019-01-27T11:10:50.180Z,6.59
2019-01-27T11:12:50.262Z,6.83
2019-01-27T11:14:50.376Z,7.0
2019-01-27T11:16:50.581Z,6.9
2019-01-27T11:18:50.611Z,6.9
2019-01-27T11:20:50.244Z,6.9
2019-01-27T11:22:50.377Z,6.9
2019-01-27T11:24:50.066Z,6.8
2019-01-27T11:26:49.727Z,6.28
2019-01-27T11:28:49.835Z,6.14
2019-01-27T11:30:49.920Z,5.90
2019-01-27T11:32:50.193Z,5.83
2019-01-27T11:34:50.673Z,5.88
2019-01-27T11:36:50.701Z,6.01
2019-01-27T11:38:50.577Z,6.08
2019-01-27T11:40:50.458Z,6.26
2019-01-27T11:42:50.662Z,6.33
2019-01-27T11:44:50.174Z,6.8
2019-01-27T11:46:50.839Z,6.9
2019-01-27T11:48:50.110Z,6.9
2019-01-27T11:50:50.388Z,7.0
2019-01-27T11:52:50.574Z,7.0
2019-01-27T11:54:50.793Z,7.0
2019-01-27T11:56:50.312Z,7.1
2019-01-27T11:58:50.534Z,7.1
2019-01-27T12:00:50.733Z,7.2
2019-01-27T12:02:50.000Z,7.2
2019-01-27T12:04:50.264Z,7.3
2019-01-27T12:06:50.483Z,7.4
2019-01-27T12:08:50.626Z,7.5
2019-01-27T12:10:50.648Z,7.5
2019-01-27T12:12:49.845Z,7.29
2019-01-27T12:14:49.937Z,7.19
2019-01-27T12:16:50.152Z,7.11
2019-01-27T12:18:50.222Z,7.06
2019-01-27T12:20:50.224Z,7.01
2019-01-27T12:22:50.337Z,7.00
2019-01-27T12:24:50.603Z,7.04
2019-01-27T12:26:50.128Z,7.09
2019-01-27T12:28:50.401Z,7.20
2019-01-27T12:30:50.581Z,7.37
2019-01-27T12:32:50.787Z,8.0
2019-01-27T12:34:50.469Z,8.0
2019-01-27T12:36:49.862Z,8.0
2019-01-27T12:38:50.205Z,8.1
2019-01-27T12:40:50.460Z,8.1
2019-01-27T12:42:50.786Z,8.1
2019-01-27T12:44:50.054Z,8.1
2019-01-27T12:46:50.430Z,7.97
2019-01-27T12:48:50.638Z,7.81
2019-01-27T12:50:49.950Z,7.68
2019-01-27T12:52:50.193Z,7.63
2019-01-27T12:54:50.396Z,7.50
2019-01-27T12:56:49.863Z,7.41
2019-01-27T12:58:50.071Z,7.40
2019-01-27T13:00:50.046Z,7.34
2019-01-27T13:02:50.106Z,7.31
2019-01-27T13:04:50.424Z,7.22
2019-01-27T13:06:50.522Z,7.14
2019-01-27T13:08:50.512Z,7.10
2019-01-27T13:10:50.490Z,7.10
2019-01-27T13:12:50.720Z,7.16
2019-01-27T13:14:49.941Z,7.25
2019-01-27T13:16:50.359Z,7.33
2019-01-27T13:18:50.477Z,7.44
2019-01-27T13:20:50.651Z,7.42
2019-01-27T13:22:49.716Z,7.37
2019-01-27T13:24:50.062Z,7.35
2019-01-27T13:26:50.481Z,7.33
2019-01-27T13:28:50.689Z,7.43
2019-01-27T13:30:49.899Z,7.66
2019-01-27T13:32:50.164Z,7.76
2019-01-27T13:34:49.851Z,7.91
2019-01-27T13:36:50.404Z,7.92
2019-01-27T13:38:51.615Z,7.85
2019-01-27T13:40:51.056Z,7.59
2019-01-27T13:42:50.243Z,7.47
2019-01-27T13:44:50.256Z,7.35
2019-01-27T13:46:50.505Z,7.28
2019-01-27T13:48:50.798Z,7.41
2019-01-27T13:50:50.197Z,8.02
2019-01-27T13:52:50.385Z,8.3
2019-01-27T13:54:50.586Z,8.3
2019-01-27T13:56:50.129Z,8.19
2019-01-27T13:58:50.160Z,7.83
2019-01-27T14:00:50.165Z,7.69
2019-01-27T14:02:50.166Z,7.49
2019-01-27T14:04:50.566Z,7.37
2019-01-27T14:06:49.896Z,7.35
2019-01-27T14:08:50.080Z,7.37
2019-01-27T14:10:50.282Z,7.46
2019-01-27T14:12:50.486Z,7.59
2019-01-27T14:14:50.681Z,7.56
2019-01-27T14:16:50.216Z,7.47
2019-01-27T14:18:50.426Z,7.47
2019-01-27T14:20:50.680Z,7.48
2019-01-27T14:22:49.904Z,7.61
2019-01-27T14:24:50.168Z,7.73
2019-01-27T14:26:50.513Z,7.84
2019-01-27T14:28:50.740Z,7.95
2019-01-27T14:30:50.003Z,8.09
2019-01-27T14:32:50.260Z,8.16
2019-01-27T14:34:49.890Z,8.10
2019-01-27T14:36:50.021Z,8.00
2019-01-27T14:38:50.082Z,8.00
2019-01-27T14:40:50.131Z,7.52
2019-01-27T14:42:50.189Z,7.45
2019-01-27T14:44:50.250Z,7.32
2019-01-27T14:46:50.573Z,7.24
2019-01-27T14:48:50.615Z,7.18
2019-01-27T14:50:49.831Z,7.04
2019-01-27T14:52:49.959Z,6.97
2019-01-27T14:54:49.947Z,6.79
2019-01-27T14:56:50.066Z,6.68
2019-01-27T14:58:50.148Z,6.62
2019-01-27T15:00:50.199Z,6.58
2019-01-27T15:02:50.240Z,6.57
2019-01-27T15:04:50.716Z,6.52
2019-01-27T15:06:50.089Z,6.49
2019-01-27T15:08:50.093Z,6.54
2019-01-27T15:10:50.254Z,6.57
2019-01-27T15:12:50.292Z,6.62
2019-01-27T15:14:50.335Z,6.66
2019-01-27T15:16:50.597Z,6.66
2019-01-27T15:18:50.652Z,6.64
2019-01-27T15:20:50.703Z,6.58
2019-01-27T15:22:49.794Z,6.52
2019-01-27T15:24:49.896Z,6.46
2019-01-27T15:26:50.277Z,6.44
2019-01-27T15:28:50.442Z,6.41
2019-01-27T15:30:50.523Z,6.29
2019-01-27T15:32:50.584Z,6.29
2019-01-27T15:34:49.905Z,6.20
2019-01-27T15:36:50.034Z,6.21
2019-01-27T15:38:50.021Z,6.18
2019-01-27T15:40:50.092Z,6.12
2019-01-27T15:42:50.164Z,6.12
2019-01-27T15:44:50.315Z,5.99
2019-01-27T15:46:50.650Z,5.89
2019-01-27T15:48:49.730Z,5.80
2019-01-27T15:50:49.826Z,5.72
2019-01-27T15:52:49.859Z,5.68
2019-01-27T15:54:50.007Z,5.68
2019-01-27T15:56:50.215Z,5.65
2019-01-27T15:58:50.229Z,5.58
2019-01-27T16:00:50.252Z,5.45
2019-01-27T16:02:50.249Z,5.34
2019-01-27T16:04:49.744Z,5.34
2019-01-27T16:06:49.926Z,5.34
2019-01-27T16:08:49.970Z,5.30
2019-01-27T16:10:49.971Z,5.15
2019-01-27T16:12:49.968Z,5.06
2019-01-27T16:14:50.014Z,5.03
2019-01-27T16:16:50.273Z,5.04
2019-01-27T16:18:50.296Z,5.03
2019-01-27T16:20:50.398Z,5.05
2019-01-27T16:22:50.411Z,5.08
2019-01-27T16:24:50.416Z,5.11
2019-01-27T16:26:49.766Z,5.12
2019-01-27T16:28:49.820Z,5.11
2019-01-27T16:30:49.915Z,5.07
2019-01-27T16:32:50.414Z,5.05
2019-01-27T16:34:49.798Z,5.10
2019-01-27T16:36:50.217Z,5.11
2019-01-27T16:38:50.420Z,5.06
2019-01-27T16:40:50.575Z,5.04
2019-01-27T16:42:50.706Z,5.11
2019-01-27T16:44:49.743Z,5.15
2019-01-27T16:46:49.966Z,5.13
2019-01-27T16:48:50.003Z,5.11
2019-01-27T16:50:50.014Z,5.17
2019-01-27T16:52:50.095Z,5.17
2019-01-27T16:54:50.119Z,5.12
2019-01-27T16:56:50.323Z,5.11
2019-01-27T16:58:50.461Z,5.11
2019-01-27T17:00:50.509Z,5.16
2019-01-27T17:02:50.603Z,5.14
2019-01-27T17:04:50.010Z,5.13
2019-01-27T17:06:50.226Z,5.16
2019-01-27T17:08:50.294Z,5.18
2019-01-27T17:10:50.285Z,5.15
2019-01-27T17:12:50.301Z,5.13
2019-01-27T17:14:50.405Z,5.11
2019-01-27T17:16:50.512Z,5.00
2019-01-27T17:18:50.577Z,4.93
2019-01-27T17:20:50.546Z,4.83
2019-01-27T17:22:50.573Z,4.81
2019-01-27T17:24:50.689Z,4.79
2019-01-27T17:26:51.612Z,4.77
2019-01-27T17:28:50.642Z,4.79
2019-01-27T17:30:50.651Z,4.83
2019-01-27T17:32:50.674Z,4.85
2019-01-27T17:34:50.169Z,4.83
2019-01-27T17:36:50.311Z,4.81
2019-01-27T17:38:50.362Z,4.77
2019-01-27T17:40:50.330Z,4.68
2019-01-27T17:42:50.268Z,4.60
2019-01-27T17:44:50.319Z,4.59
2019-01-27T17:46:49.692Z,4.53
2019-01-27T17:48:49.761Z,4.50
2019-01-27T17:50:49.842Z,4.47
2019-01-27T17:52:49.914Z,4.40
2019-01-27T17:54:49.928Z,4.40
2019-01-27T17:56:50.295Z,4.35
2019-01-27T17:58:54.807Z,4.27
2019-01-27T18:00:49.943Z,4.20
2019-01-27T18:02:49.982Z,4.14
2019-01-27T18:04:50.223Z,4.17
2019-01-27T18:06:50.467Z,4.22
2019-01-27T18:08:50.452Z,4.23
2019-01-27T18:10:50.598Z,4.27
2019-01-27T18:12:49.714Z,4.33
2019-01-27T18:14:49.731Z,4.33
2019-01-27T18:16:50.155Z,4.32
2019-01-27T18:18:50.140Z,4.34
2019-01-27T18:20:50.221Z,4.35
2019-01-27T18:22:50.343Z,4.37
2019-01-27T18:24:50.383Z,4.35
2019-01-27T18:26:49.764Z,4.32
2019-01-27T18:28:52.247Z,4.30
2019-01-27T18:30:50.336Z,4.27
2019-01-27T18:32:50.512Z,4.25
2019-01-27T18:34:50.065Z,4.23
2019-01-27T18:36:50.464Z,4.18
2019-01-27T18:38:50.605Z,4.10
2019-01-27T18:40:50.721Z,4.05
2019-01-27T18:42:49.908Z,4.01
2019-01-27T18:44:50.368Z,3.97
2019-01-27T18:46:49.940Z,3.96
2019-01-27T18:48:50.086Z,3.95
2019-01-27T18:50:50.225Z,3.95
2019-01-27T18:52:50.327Z,3.92
2019-01-27T18:54:50.444Z,3.87
2019-01-27T18:56:49.828Z,3.84
2019-01-27T18:58:50.020Z,3.83
2019-01-27T19:00:50.241Z,3.82
2019-01-27T19:02:50.396Z,3.81
2019-01-27T19:04:49.866Z,3.77
2019-01-27T19:06:50.008Z,3.76
2019-01-27T19:08:50.048Z,3.75
2019-01-27T19:10:50.175Z,3.73
2019-01-27T19:12:50.275Z,3.70
2019-01-27T19:14:50.406Z,3.67
2019-01-27T19:16:49.731Z,3.68
2019-01-27T19:18:49.862Z,3.69
2019-01-27T19:20:50.024Z,3.76
2019-01-27T19:22:50.169Z,3.80
2019-01-27T19:24:50.285Z,3.80
2019-01-27T19:26:50.542Z,3.77
2019-01-27T19:28:49.716Z,3.75
2019-01-27T19:30:50.568Z,3.72
2019-01-27T19:32:49.733Z,3.72
2019-01-27T19:34:50.338Z,3.75
2019-01-27T19:36:50.346Z,3.75
2019-01-27T19:38:50.504Z,3.76
2019-01-27T19:40:50.467Z,3.78
2019-01-27T19:42:50.118Z,3.80
2019-01-27T19:44:50.301Z,3.80
2019-01-27T19:46:50.708Z,3.82
2019-01-27T19:48:49.776Z,3.79
2019-01-27T19:50:50.035Z,3.78
2019-01-27T19:52:49.921Z,3.77
2019-01-27T19:54:50.023Z,3.81
2019-01-27T19:56:50.385Z,3.87
2019-01-27T19:58:50.421Z,3.91
2019-01-27T20:00:50.523Z,3.93
2019-01-27T20:02:50.356Z,3.93
2019-01-27T20:04:50.689Z,3.91
2019-01-27T20:06:50.157Z,3.89
2019-01-27T20:08:50.189Z,3.89
2019-01-27T20:10:50.323Z,3.91
2019-01-27T20:12:50.380Z,3.91
2019-01-27T20:14:50.561Z,3.88
2019-01-27T20:16:49.955Z,3.86
2019-01-27T20:18:50.089Z,3.83
2019-01-27T20:20:50.201Z,3.83
2019-01-27T20:22:50.338Z,3.82
2019-01-27T20:24:50.437Z,3.80
2019-01-27T20:26:49.720Z,3.78
2019-01-27T20:28:50.570Z,3.76
2019-01-27T20:30:50.568Z,3.79
2019-01-27T20:32:49.709Z,3.77
2019-01-27T20:34:50.353Z,3.76
2019-01-27T20:36:50.594Z,3.75
2019-01-27T20:38:49.702Z,3.75
2019-01-27T20:40:49.870Z,3.71
2019-01-27T20:42:49.954Z,3.68
2019-01-27T20:44:50.464Z,3.63
2019-01-27T20:46:49.980Z,3.62
2019-01-27T20:48:50.054Z,3.63
2019-01-27T20:50:49.923Z,3.64
2019-01-27T20:52:50.029Z,3.64
2019-01-27T20:54:50.699Z,3.64
2019-01-27T20:56:49.949Z,3.63
2019-01-27T20:58:50.687Z,3.63
2019-01-27T21:00:50.697Z,3.60
2019-01-27T21:02:49.809Z,3.59
2019-01-27T21:04:50.316Z,3.59
2019-01-27T21:06:50.502Z,3.64
2019-01-27T21:08:50.629Z,3.69
2019-01-27T21:10:49.782Z,3.74
2019-01-27T21:12:49.896Z,3.74
2019-01-27T21:14:49.938Z,3.76
2019-01-27T21:16:50.227Z,3.76
2019-01-27T21:18:50.331Z,3.76
2019-01-27T21:20:54.152Z,3.71
2019-01-27T21:22:50.292Z,3.67
2019-01-27T21:24:50.333Z,3.66
2019-01-27T21:26:49.814Z,3.65
2019-01-27T21:28:49.884Z,3.60
2019-01-27T21:30:50.004Z,3.57
2019-01-27T21:32:50.101Z,3.55
2019-01-27T21:34:50.335Z,3.53
2019-01-27T21:36:50.725Z,3.52
2019-01-27T21:38:49.913Z,3.52
2019-01-27T21:40:49.955Z,3.52
2019-01-27T21:42:50.133Z,3.50
2019-01-27T21:44:50.293Z,3.46
2019-01-27T21:46:50.586Z,3.46
2019-01-27T21:48:49.750Z,3.44
2019-01-27T21:50:49.843Z,3.42
2019-01-27T21:52:49.935Z,3.42
2019-01-27T21:54:50.011Z,3.43
2019-01-27T21:56:50.282Z,3.47
2019-01-27T21:58:50.355Z,3.50
2019-01-27T22:00:50.397Z,3.53
2019-01-27T22:02:50.577Z,3.55
2019-01-27T22:04:49.948Z,3.57
2019-01-27T22:06:50.260Z,3.57
2019-01-27T22:08:50.351Z,3.56
2019-01-27T22:10:50.468Z,3.55
2019-01-27T22:12:50.573Z,3.55
2019-01-27T22:14:49.749Z,3.56
2019-01-27T22:16:50.124Z,3.54
2019-01-27T22:18:50.189Z,3.55
2019-01-27T22:20:50.340Z,3.56
2019-01-27T22:22:50.447Z,3.55
2019-01-27T22:24:50.563Z,3.53
2019-01-27T22:26:49.931Z,3.52
2019-01-27T22:28:49.939Z,3.49
2019-01-27T22:30:49.962Z,3.47
2019-01-27T22:32:50.003Z,3.40
2019-01-27T22:34:50.272Z,3.32
2019-01-27T22:36:50.630Z,3.30
2019-01-27T22:38:49.710Z,3.27
2019-01-27T22:40:49.838Z,3.25
2019-01-27T22:42:49.931Z,3.26
2019-01-27T22:44:50.014Z,3.24
2019-01-27T22:46:50.340Z,3.22
2019-01-27T22:48:50.415Z,3.22
2019-01-27T22:50:50.440Z,3.24
2019-01-27T22:52:50.505Z,3.25
2019-01-27T22:54:50.551Z,3.24
2019-01-27T22:56:49.985Z,3.22
2019-01-27T22:58:49.972Z,3.20
2019-01-27T23:00:49.969Z,3.20
2019-01-27T23:02:50.093Z,3.21
2019-01-27T23:04:50.514Z,3.22
2019-01-27T23:06:49.894Z,3.23
2019-01-27T23:08:49.893Z,3.22
2019-01-27T23:10:49.970Z,3.21
2019-01-27T23:12:49.956Z,3.22
2019-01-27T23:14:49.949Z,3.21
2019-01-27T23:16:50.064Z,3.20
2019-01-27T23:18:50.176Z,3.19
2019-01-27T23:20:50.228Z,3.18
2019-01-27T23:22:50.265Z,3.17
2019-01-27T23:24:50.268Z,3.19
2019-01-27T23:26:50.565Z,3.18
2019-01-27T23:28:50.557Z,3.17
2019-01-27T23:30:50.559Z,3.10
2019-01-27T23:32:50.563Z,3.10
2019-01-27T23:34:49.976Z,3.08
2019-01-27T23:36:50.179Z,3.07
2019-01-27T23:38:50.112Z,3.06
2019-01-27T23:40:50.103Z,3.06
2019-01-27T23:42:50.216Z,3.04
2019-01-27T23:44:50.227Z,3.02
2019-01-27T23:46:50.336Z,3.01
2019-01-27T23:48:50.345Z,2.98
2019-01-27T23:50:50.416Z,2.97
2019-01-27T23:52:50.543Z,2.94
2019-01-27T23:54:50.497Z,2.92
2019-01-27T23:56:49.844Z,2.89
2019-01-27T23:58:49.789Z,2.85
